createdAt,value
2023-01-30T00:02:24.116Z,79.38
2023-01-30T00:04:54.319Z,79.62
2023-01-30T00:07:25.134Z,79.64
2023-01-30T00:09:55.318Z,79.20
2023-01-30T00:12:25.484Z,79.49
2023-01-30T00:14:55.581Z,79.06
2023-01-30T00:17:25.726Z,78.87
2023-01-30T00:19:56.060Z,78.42
2023-01-30T00:22:26.504Z,79.03
2023-01-30T00:24:56.702Z,79.71
2023-01-30T00:27:26.909Z,79.07
2023-01-30T00:30:02.711Z,79.28
2023-01-30T00:32:33.960Z,79.49
2023-01-30T00:35:04.549Z,78.95
2023-01-30T00:37:34.604Z,79.16
2023-01-30T00:40:05.215Z,79.23
2023-01-30T00:42:54.186Z,78.66
2023-01-30T00:45:42.751Z,79.20
2023-01-30T00:48:13.129Z,79.03
2023-01-30T00:50:43.313Z,78.44
2023-01-30T00:53:15.499Z,78.99
2023-01-30T00:55:46.249Z,78.49
2023-01-30T00:58:16.571Z,78.68
2023-01-30T01:00:54.803Z,79.05
2023-01-30T01:03:30.546Z,78.31
2023-01-30T01:06:03.326Z,78.73
2023-01-30T01:08:33.502Z,79.02
2023-01-30T01:11:03.988Z,78.67
2023-01-30T01:13:36.781Z,78.59
2023-01-30T01:16:07.090Z,78.43
2023-01-30T01:18:37.298Z,78.85
2023-01-30T01:21:07.625Z,78.44
2023-01-30T01:23:37.903Z,78.92
2023-01-30T01:26:08.194Z,78.57
2023-01-30T01:28:38.354Z,78.66
2023-01-30T01:31:12.482Z,78.78
2023-01-30T01:33:42.785Z,78.55
2023-01-30T01:36:20.083Z,78.77
2023-01-30T01:38:59.902Z,78.87
2023-01-30T01:41:30.369Z,78.40
2023-01-30T01:44:07.126Z,78.29
2023-01-30T01:47:12.613Z,78.46
2023-01-30T01:49:43.051Z,78.48
2023-01-30T01:52:17.271Z,78.41
2023-01-30T01:54:59.937Z,78.45
2023-01-30T01:57:29.960Z,78.41
2023-01-30T02:02:49.896Z,78.71
2023-01-30T02:05:21.505Z,78.56
2023-01-30T02:08:00.428Z,78.87
2023-01-30T02:11:00.572Z,79.09
2023-01-30T02:13:31.795Z,77.92
2023-01-30T02:16:03.897Z,78.10
2023-01-30T02:18:37.163Z,78.05
2023-01-30T02:21:44.573Z,79.18
2023-01-30T02:24:20.613Z,78.47
2023-01-30T02:26:58.126Z,78.14
2023-01-30T02:30:06.940Z,78.86
2023-01-30T02:32:45.899Z,78.87
2023-01-30T02:35:29.282Z,78.60
2023-01-30T02:38:31.211Z,78.37
2023-01-30T02:41:07.369Z,78.39
2023-01-30T02:43:52.079Z,78.64
2023-01-30T02:46:33.263Z,78.63
2023-01-30T02:49:13.586Z,78.33
2023-01-30T02:51:47.644Z,78.22
2023-01-30T02:54:17.801Z,78.34
2023-01-30T02:56:52.760Z,77.85
2023-01-30T02:59:45.552Z,78.97
2023-01-30T03:02:45.028Z,79.12
2023-01-30T03:05:34.949Z,78.25
2023-01-30T03:08:07.873Z,78.07
2023-01-30T03:10:48.099Z,78.80
2023-01-30T03:13:34.168Z,79.10
2023-01-30T03:16:13.973Z,78.98
2023-01-30T03:18:46.061Z,78.72
2023-01-30T03:21:16.532Z,78.52
2023-01-30T03:23:47.143Z,79.51
2023-01-30T03:26:29.171Z,78.94
2023-01-30T03:29:07.003Z,79.17
2023-01-30T03:31:42.477Z,79.50
2023-01-30T03:34:15.292Z,79.15
2023-01-30T03:36:48.282Z,79.27
2023-01-30T03:39:20.098Z,79.38
2023-01-30T03:41:50.951Z,79.64
2023-01-30T03:44:22.438Z,79.91
2023-01-30T03:46:52.518Z,79.27
2023-01-30T03:49:22.756Z,79.98
2023-01-30T03:51:52.872Z,79.44
2023-01-30T03:54:23.061Z,79.10
2023-01-30T03:56:53.119Z,79.64
2023-01-30T03:59:23.255Z,79.33
2023-01-30T04:01:53.354Z,79.52
2023-01-30T04:04:23.782Z,79.18
2023-01-30T04:06:53.915Z,79.22
2023-01-30T04:09:24.036Z,79.18
2023-01-30T04:11:54.211Z,79.24
2023-01-30T04:14:24.436Z,79.60
2023-01-30T04:16:54.690Z,79.42
2023-01-30T04:19:25.241Z,79.24
2023-01-30T04:21:55.388Z,79.21
2023-01-30T04:24:25.528Z,79.38
2023-01-30T04:26:55.713Z,79.27
2023-01-30T04:29:25.859Z,79.12
2023-01-30T04:31:56.126Z,78.93
2023-01-30T04:34:26.287Z,79.33
2023-01-30T04:36:56.441Z,79.21
2023-01-30T04:39:26.621Z,78.33
2023-01-30T04:41:56.745Z,78.63
2023-01-30T04:44:27.013Z,79.05
2023-01-30T04:46:57.202Z,79.11
2023-01-30T04:49:27.581Z,78.70
2023-01-30T04:51:57.817Z,78.80
2023-01-30T04:54:27.976Z,79.20
2023-01-30T04:56:58.069Z,79.76
2023-01-30T04:59:28.153Z,79.12
2023-01-30T05:01:58.574Z,79.20
2023-01-30T05:04:28.901Z,79.18
2023-01-30T05:06:59.038Z,79.55
2023-01-30T05:09:29.205Z,79.20
2023-01-30T05:11:59.295Z,79.33
2023-01-30T05:14:29.353Z,79.46
2023-01-30T05:16:59.551Z,79.32
2023-01-30T05:19:29.887Z,79.50
2023-01-30T05:21:59.966Z,79.14
2023-01-30T05:24:30.127Z,79.87
2023-01-30T05:27:00.224Z,79.59
2023-01-30T05:29:31.072Z,79.28
2023-01-30T05:32:01.218Z,78.73
2023-01-30T05:34:31.586Z,79.99
2023-01-30T05:37:01.732Z,79.88
2023-01-30T05:39:32.316Z,79.92
2023-01-30T05:42:03.740Z,79.45
2023-01-30T05:44:33.942Z,79.42
2023-01-30T05:47:04.117Z,79.28
2023-01-30T05:49:34.388Z,79.16
2023-01-30T05:52:04.737Z,79.13
2023-01-30T05:54:35.091Z,78.95
2023-01-30T05:57:05.369Z,78.99
2023-01-30T05:59:35.451Z,79.17
2023-01-30T06:02:05.738Z,79.39
2023-01-30T06:04:35.872Z,78.67
2023-01-30T06:07:06.051Z,78.88
2023-01-30T06:09:36.266Z,79.20
2023-01-30T06:12:07.519Z,79.05
2023-01-30T06:14:37.681Z,79.31
2023-01-30T06:17:07.952Z,79.14
2023-01-30T06:19:38.223Z,78.81
2023-01-30T06:22:08.284Z,78.54
2023-01-30T06:24:38.486Z,79.38
2023-01-30T06:27:08.574Z,78.97
2023-01-30T06:29:38.675Z,79.25
2023-01-30T06:32:10.214Z,79.01
2023-01-30T06:34:40.301Z,78.73
2023-01-30T06:37:10.451Z,78.52
2023-01-30T06:39:40.605Z,78.59
2023-01-30T06:42:10.818Z,79.37
2023-01-30T06:44:40.896Z,79.66
2023-01-30T06:47:11.164Z,79.20
2023-01-30T06:49:41.291Z,79.11
2023-01-30T06:52:11.390Z,79.03
2023-01-30T06:54:41.473Z,79.38
2023-01-30T06:57:12.765Z,79.88
2023-01-30T06:59:42.832Z,79.77
2023-01-30T07:02:14.255Z,79.44
2023-01-30T07:04:44.789Z,79.13
2023-01-30T07:07:15.046Z,79.85
2023-01-30T07:09:58.538Z,79.88
2023-01-30T07:12:38.615Z,80.24
2023-01-30T07:15:09.986Z,80.32
2023-01-30T07:17:43.047Z,80.48
2023-01-30T07:20:14.076Z,80.47
2023-01-30T07:22:56.541Z,81.05
2023-01-30T07:25:29.781Z,80.51
2023-01-30T07:28:01.848Z,81.17
2023-01-30T07:30:36.163Z,80.85
2023-01-30T07:33:07.191Z,81.23
2023-01-30T07:35:38.415Z,80.89
2023-01-30T07:38:08.587Z,80.48
2023-01-30T07:40:38.843Z,80.63
2023-01-30T07:43:12.778Z,81.05
2023-01-30T07:45:48.792Z,80.82
2023-01-30T07:48:20.191Z,80.81
2023-01-30T07:50:50.428Z,80.42
2023-01-30T07:53:20.526Z,80.67
2023-01-30T07:55:51.926Z,80.85
2023-01-30T07:58:22.104Z,80.52
2023-01-30T08:00:55.616Z,80.49
2023-01-30T08:03:25.997Z,80.23
2023-01-30T08:05:56.260Z,80.18
2023-01-30T08:08:26.343Z,79.60
2023-01-30T08:10:56.532Z,80.17
2023-01-30T08:13:27.668Z,80.02
2023-01-30T08:16:02.791Z,80.46
2023-01-30T08:18:34.415Z,79.74
2023-01-30T08:21:06.904Z,79.79
2023-01-30T08:23:37.135Z,79.79
2023-01-30T08:26:07.297Z,79.15
2023-01-30T08:28:37.489Z,80.37
2023-01-30T08:31:13.071Z,79.27
2023-01-30T08:33:43.772Z,79.64
2023-01-30T08:36:13.986Z,79.51
2023-01-30T08:38:44.724Z,79.26
2023-01-30T08:41:14.825Z,79.04
2023-01-30T08:43:44.968Z,78.84
2023-01-30T08:46:15.268Z,79.26
2023-01-30T08:48:49.849Z,78.96
2023-01-30T08:51:20.457Z,79.08
2023-01-30T08:53:50.549Z,79.29
2023-01-30T08:56:20.685Z,79.03
2023-01-30T08:58:50.797Z,79.02
2023-01-30T09:01:20.937Z,79.01
2023-01-30T09:03:51.054Z,78.59
2023-01-30T09:06:21.169Z,79.24
2023-01-30T09:08:51.259Z,79.52
2023-01-30T09:11:21.470Z,79.81
2023-01-30T09:13:51.663Z,79.48
2023-01-30T09:16:21.873Z,79.73
2023-01-30T09:18:52.056Z,79.28
2023-01-30T09:21:22.292Z,79.96
2023-01-30T09:23:52.403Z,79.83
2023-01-30T09:26:22.590Z,80.50
2023-01-30T09:28:52.774Z,80.14
2023-01-30T09:31:23.033Z,79.73
2023-01-30T09:33:53.324Z,80.23
2023-01-30T09:36:23.547Z,80.11
2023-01-30T09:38:53.910Z,80.42
2023-01-30T09:42:02.979Z,80.38
2023-01-30T09:44:42.421Z,80.40
2023-01-30T09:47:42.544Z,80.69
2023-01-30T09:50:46.525Z,81.34
2023-01-30T09:54:09.305Z,80.78
2023-01-30T09:56:39.467Z,80.20
2023-01-30T09:59:23.856Z,79.69
2023-01-30T10:02:05.960Z,79.85
2023-01-30T10:05:00.116Z,79.47
2023-01-30T10:08:09.948Z,80.16
2023-01-30T10:11:04.376Z,79.23
2023-01-30T10:13:59.742Z,79.35
2023-01-30T10:16:41.933Z,78.84
2023-01-30T10:19:49.127Z,79.65
2023-01-30T10:22:29.244Z,80.07
2023-01-30T10:25:28.088Z,79.50
2023-01-30T10:28:02.127Z,78.50
2023-01-30T10:30:34.094Z,78.92
2023-01-30T10:33:18.641Z,79.11
2023-01-30T10:36:07.753Z,79.29
2023-01-30T10:38:44.529Z,78.73
2023-01-30T10:41:17.620Z,79.26
2023-01-30T10:43:58.453Z,78.75
2023-01-30T10:46:49.219Z,79.24
2023-01-30T10:49:25.532Z,79.35
2023-01-30T10:52:24.457Z,78.50
2023-01-30T10:55:12.182Z,79.19
2023-01-30T10:58:19.927Z,78.48
2023-01-30T11:01:26.462Z,79.05
2023-01-30T11:04:03.363Z,79.52
2023-01-30T11:06:35.369Z,78.59
2023-01-30T11:09:05.644Z,78.55
2023-01-30T11:11:55.914Z,79.30
2023-01-30T11:14:27.172Z,78.32
2023-01-30T11:16:58.632Z,78.53
2023-01-30T11:19:33.945Z,78.81
2023-01-30T11:22:05.724Z,78.58
2023-01-30T11:24:45.010Z,78.60
2023-01-30T11:27:25.699Z,79.30
2023-01-30T11:30:18.295Z,79.40
2023-01-30T11:32:49.965Z,78.72
2023-01-30T11:35:25.571Z,79.31
2023-01-30T11:38:12.418Z,78.97
2023-01-30T11:40:42.711Z,78.84
2023-01-30T11:43:14.558Z,79.50
2023-01-30T11:45:50.594Z,79.67
2023-01-30T11:48:33.336Z,79.65
2023-01-30T11:51:17.322Z,80.05
2023-01-30T11:53:51.035Z,80.51
2023-01-30T11:56:26.829Z,81.16
2023-01-30T11:59:03.976Z,80.90
2023-01-30T12:01:37.222Z,81.22
2023-01-30T12:04:12.266Z,81.08
2023-01-30T12:06:43.656Z,81.08
2023-01-30T12:09:33.576Z,81.13
2023-01-30T12:12:27.687Z,79.96
2023-01-30T12:15:21.732Z,78.68
2023-01-30T12:18:32.658Z,79.01
2023-01-30T12:21:26.588Z,79.54
2023-01-30T12:24:06.024Z,77.98
2023-01-30T12:26:44.283Z,77.68
2023-01-30T12:29:41.896Z,77.68
2023-01-30T12:32:16.529Z,77.71
2023-01-30T12:34:48.539Z,77.79
2023-01-30T12:37:36.894Z,77.37
2023-01-30T12:40:33.663Z,77.29
2023-01-30T12:43:09.555Z,77.54
2023-01-30T12:46:01.695Z,77.80
2023-01-30T12:48:43.905Z,77.48
2023-01-30T12:51:31.095Z,77.29
2023-01-30T12:54:21.467Z,74.67
2023-01-30T12:57:29.520Z,73.32
2023-01-30T13:00:34.856Z,69.66
2023-01-30T13:03:32.578Z,67.15
2023-01-30T13:06:47.839Z,64.51
2023-01-30T13:09:50.145Z,66.41
2023-01-30T13:12:29.117Z,70.10
2023-01-30T13:15:08.581Z,70.68
2023-01-30T13:18:03.662Z,70.35
2023-01-30T13:20:49.016Z,72.05
2023-01-30T13:23:31.619Z,72.25
2023-01-30T13:26:08.284Z,72.86
2023-01-30T13:28:49.090Z,73.35
2023-01-30T13:31:22.789Z,73.91
2023-01-30T13:34:17.555Z,74.77
2023-01-30T13:36:52.416Z,74.79
2023-01-30T13:39:42.473Z,74.82
2023-01-30T13:42:33.122Z,73.97
2023-01-30T13:45:06.050Z,73.96
2023-01-30T13:48:05.707Z,74.02
2023-01-30T13:51:05.603Z,73.82
2023-01-30T13:53:43.027Z,73.78
2023-01-30T13:56:40.339Z,73.88
2023-01-30T13:59:30.246Z,73.90
2023-01-30T14:02:02.266Z,74.07
2023-01-30T14:04:41.370Z,73.88
2023-01-30T14:07:42.916Z,74.46
2023-01-30T14:10:18.189Z,74.27
2023-01-30T14:12:54.010Z,74.55
2023-01-30T14:15:29.241Z,74.60
2023-01-30T14:18:16.418Z,74.93
2023-01-30T14:20:52.177Z,74.83
2023-01-30T14:23:33.341Z,75.37
2023-01-30T14:26:08.026Z,74.87
2023-01-30T14:28:45.279Z,75.60
2023-01-30T14:31:55.857Z,75.81
2023-01-30T14:34:48.165Z,76.26
2023-01-30T14:37:47.047Z,76.86
2023-01-30T14:40:23.216Z,76.59
2023-01-30T14:43:19.637Z,77.21
2023-01-30T14:46:03.068Z,77.56
2023-01-30T14:48:40.468Z,77.25
2023-01-30T14:51:42.720Z,78.35
2023-01-30T14:54:13.533Z,77.69
2023-01-30T14:57:03.204Z,78.02
2023-01-30T14:59:40.255Z,78.48
2023-01-30T15:02:13.404Z,79.14
2023-01-30T15:04:54.279Z,77.25
2023-01-30T15:07:50.536Z,77.61
2023-01-30T15:10:32.379Z,77.76
2023-01-30T15:13:17.627Z,77.11
2023-01-30T15:16:19.445Z,77.63
2023-01-30T15:19:04.736Z,77.35
2023-01-30T15:22:04.450Z,77.04
2023-01-30T15:25:13.172Z,77.28
2023-01-30T15:27:49.185Z,77.09
2023-01-30T15:30:43.958Z,77.29
2023-01-30T15:33:30.114Z,76.62
2023-01-30T15:36:28.305Z,76.72
2023-01-30T15:39:06.924Z,76.66
2023-01-30T15:41:41.832Z,76.46
2023-01-30T15:45:00.899Z,76.53
2023-01-30T15:47:40.907Z,76.39
2023-01-30T15:50:11.700Z,76.22
2023-01-30T15:52:47.285Z,76.01
2023-01-30T15:55:23.478Z,76.42
2023-01-30T15:57:58.424Z,76.10
2023-01-30T16:00:32.213Z,75.90
2023-01-30T16:03:05.963Z,75.74
2023-01-30T16:05:36.137Z,75.52
2023-01-30T16:08:23.270Z,75.32
2023-01-30T16:10:53.684Z,75.14
2023-01-30T16:13:24.948Z,75.21
2023-01-30T16:16:09.740Z,75.08
2023-01-30T16:18:49.630Z,75.14
2023-01-30T16:21:24.070Z,75.17
2023-01-30T16:24:24.989Z,75.32
2023-01-30T16:27:01.038Z,75.27
2023-01-30T16:29:43.307Z,75.34
2023-01-30T16:32:14.480Z,74.97
2023-01-30T16:34:44.700Z,74.75
2023-01-30T16:37:20.723Z,74.62
2023-01-30T16:40:12.044Z,74.52
2023-01-30T16:42:55.177Z,74.60
2023-01-30T16:45:34.606Z,74.57
2023-01-30T16:48:33.549Z,74.96
2023-01-30T16:51:15.522Z,74.99
2023-01-30T16:53:59.769Z,74.46
2023-01-30T16:56:34.684Z,74.75
2023-01-30T16:59:04.971Z,75.05
2023-01-30T17:01:38.633Z,74.86
2023-01-30T17:04:19.027Z,74.98
2023-01-30T17:06:53.483Z,75.30
2023-01-30T17:09:42.553Z,75.68
2023-01-30T17:12:35.428Z,75.89
2023-01-30T17:15:14.707Z,75.79
2023-01-30T17:17:45.398Z,75.80
2023-01-30T17:20:18.852Z,75.49
2023-01-30T17:22:52.660Z,75.65
2023-01-30T17:25:35.920Z,75.48
2023-01-30T17:28:07.857Z,75.50
2023-01-30T17:30:38.880Z,76.30
2023-01-30T17:33:11.448Z,76.17
2023-01-30T17:35:41.734Z,76.04
2023-01-30T17:38:12.808Z,76.24
2023-01-30T17:40:43.198Z,75.65
2023-01-30T17:43:13.491Z,76.11
2023-01-30T17:45:43.848Z,75.91
2023-01-30T17:48:14.868Z,76.13
2023-01-30T17:50:44.927Z,75.84
2023-01-30T17:53:15.171Z,76.01
2023-01-30T17:55:46.719Z,76.04
2023-01-30T17:58:22.396Z,76.03
2023-01-30T18:00:58.854Z,76.15
2023-01-30T18:03:29.168Z,75.55
2023-01-30T18:05:59.441Z,75.93
2023-01-30T18:08:30.156Z,75.52
2023-01-30T18:11:00.223Z,75.59
2023-01-30T18:13:30.504Z,75.62
2023-01-30T18:16:00.590Z,75.88
2023-01-30T18:18:30.991Z,75.32
2023-01-30T18:21:01.460Z,76.07
2023-01-30T18:23:31.555Z,75.49
2023-01-30T18:26:01.717Z,75.25
2023-01-30T18:28:31.852Z,75.61
2023-01-30T18:31:02.118Z,75.32
2023-01-30T18:33:34.119Z,75.35
2023-01-30T18:36:08.391Z,75.34
2023-01-30T18:38:39.685Z,75.26
2023-01-30T18:41:15.477Z,75.99
2023-01-30T18:43:50.371Z,75.71
2023-01-30T18:46:20.572Z,75.49
2023-01-30T18:48:50.741Z,75.87
2023-01-30T18:51:28.884Z,75.34
2023-01-30T18:53:59.327Z,75.57
2023-01-30T18:56:32.069Z,75.55
2023-01-30T18:59:05.367Z,75.91
2023-01-30T19:01:38.989Z,75.20
2023-01-30T19:04:11.833Z,75.52
2023-01-30T19:06:43.584Z,75.68
2023-01-30T19:09:15.908Z,75.24
2023-01-30T19:12:04.897Z,75.82
2023-01-30T19:14:35.135Z,75.11
2023-01-30T19:17:05.314Z,75.31
2023-01-30T19:19:37.222Z,75.23
2023-01-30T19:22:07.381Z,75.46
2023-01-30T19:24:37.578Z,75.60
2023-01-30T19:27:10.065Z,75.65
2023-01-30T19:29:41.825Z,75.58
2023-01-30T19:32:12.032Z,75.80
2023-01-30T19:34:43.688Z,75.85
2023-01-30T19:37:19.491Z,75.83
2023-01-30T19:39:49.657Z,75.64
2023-01-30T19:42:19.829Z,76.02
2023-01-30T19:44:50.040Z,75.78
2023-01-30T19:47:22.146Z,75.94
2023-01-30T19:49:52.348Z,76.02
2023-01-30T19:52:22.524Z,75.98
2023-01-30T19:54:52.712Z,75.61
2023-01-30T20:08:02.291Z,75.97
2023-01-30T20:10:32.714Z,75.86
2023-01-30T20:13:04.087Z,76.08
2023-01-30T20:15:34.491Z,75.86
2023-01-30T20:18:04.870Z,76.18
2023-01-30T20:20:35.095Z,75.79
2023-01-30T20:23:05.211Z,76.04
2023-01-30T20:25:36.453Z,75.94
2023-01-30T20:28:06.617Z,75.64
2023-01-30T20:30:40.343Z,76.67
2023-01-30T20:33:10.634Z,75.79
2023-01-30T20:35:40.817Z,75.96
2023-01-30T20:38:11.046Z,76.39
2023-01-30T20:40:41.212Z,75.94
2023-01-30T20:43:11.359Z,76.59
2023-01-30T20:45:41.501Z,76.48
2023-01-30T20:48:11.606Z,76.45
2023-01-30T20:50:42.801Z,76.25
2023-01-30T20:53:12.866Z,77.03
2023-01-30T20:55:43.821Z,76.40
2023-01-30T20:58:13.919Z,76.70
2023-01-30T21:00:48.301Z,76.76
2023-01-30T21:03:18.510Z,76.81
2023-01-30T21:06:01.645Z,77.43
2023-01-30T21:08:31.932Z,76.95
2023-01-30T21:11:08.735Z,76.72
2023-01-30T21:13:39.481Z,76.73
2023-01-30T21:16:19.136Z,77.19
2023-01-30T21:18:51.890Z,76.73
2023-01-30T21:21:28.327Z,77.28
2023-01-30T21:24:00.996Z,77.15
2023-01-30T21:26:34.454Z,76.90
2023-01-30T21:29:09.175Z,77.07
2023-01-30T21:31:41.226Z,76.75
2023-01-30T21:34:15.907Z,77.05
2023-01-30T21:37:08.398Z,76.66
2023-01-30T21:39:57.687Z,77.26
2023-01-30T21:42:46.664Z,76.69
2023-01-30T21:45:17.581Z,77.24
2023-01-30T21:47:54.548Z,77.45
2023-01-30T21:50:27.949Z,77.27
2023-01-30T21:52:58.243Z,77.63
2023-01-30T21:55:28.402Z,77.07
2023-01-30T21:57:58.531Z,77.36
2023-01-30T22:00:28.745Z,76.85
2023-01-30T22:02:58.800Z,77.23
2023-01-30T22:05:36.553Z,77.75
2023-01-30T22:08:06.989Z,77.32
2023-01-30T22:10:37.424Z,77.49
2023-01-30T22:13:13.447Z,77.34
2023-01-30T22:15:43.656Z,77.37
2023-01-30T22:18:13.706Z,76.98
2023-01-30T22:20:43.814Z,77.53
2023-01-30T22:23:13.935Z,77.25
2023-01-30T22:25:44.037Z,77.55
2023-01-30T22:28:14.190Z,76.87
2023-01-30T22:30:45.052Z,77.43
2023-01-30T22:33:15.293Z,76.87
2023-01-30T22:35:51.033Z,77.62
2023-01-30T22:38:22.544Z,77.25
2023-01-30T22:41:12.164Z,76.93
2023-01-30T22:43:48.143Z,77.11
2023-01-30T22:46:19.648Z,77.19
2023-01-30T22:48:49.786Z,77.35
2023-01-30T22:51:22.897Z,77.34
2023-01-30T22:53:58.339Z,77.41
2023-01-30T22:56:36.236Z,76.97
2023-01-30T22:59:07.413Z,76.94
2023-01-30T23:01:43.020Z,76.73
2023-01-30T23:04:15.991Z,76.69
2023-01-30T23:06:47.665Z,76.97
2023-01-30T23:09:20.626Z,77.03
2023-01-30T23:12:15.406Z,77.15
2023-01-30T23:14:46.227Z,76.74
2023-01-30T23:17:35.448Z,76.89
2023-01-30T23:20:06.142Z,77.21
2023-01-30T23:22:36.765Z,77.64
2023-01-30T23:25:09.148Z,77.18
2023-01-30T23:27:40.183Z,76.98
2023-01-30T23:30:11.164Z,77.47
2023-01-30T23:32:41.232Z,77.18
2023-01-30T23:35:11.455Z,77.52
2023-01-30T23:38:00.424Z,77.20
2023-01-30T23:40:30.585Z,77.30
2023-01-30T23:43:00.705Z,77.50
2023-01-30T23:45:30.822Z,76.98
2023-01-30T23:48:01.320Z,77.66
2023-01-30T23:50:31.776Z,77.51
2023-01-30T23:53:01.964Z,77.18
2023-01-30T23:55:33.384Z,77.35
2023-01-30T23:58:03.624Z,77.24
